Amura — H8AV — position and weather

sailwx.info

Track history (hours):
 
Tides and Currents Weather Stations Pressure Air Temp Water Temp Dewpoint Dewpoint Depression Visibility Wind Speed Wind Dir Waves Ship Positions

Amura

Last reported at 2018-Jan-20 22:22 UTC. Time now 2018-Jan-21 20:30 UTC.
Position N 24°53' W 077°06'.

Length 291 m; draft 14.3 m.

Type: Cargo ship. MMSI: 371691000.

Date/timePositionNaut miles runAvg speedWind from/ knotsBaromVisibWave heightAir tempDewpointWater temp
2018-Jan-20 22:22N 24°53' W 077°06'3 6.6
2018-Jan-20 21:59N 24°51' W 077°04'3 7.3
2018-Jan-20 21:30N 24°48' W 077°02'4 7.2
2018-Jan-20 21:01N 24°45' W 076°60'4 7.2
2018-Jan-20 20:30N 24°42' W 076°58'4 7.6
2018-Jan-20 20:00N 24°39' W 076°55'4 7.6
2018-Jan-20 19:30N 24°36' W 076°54'4 7.4
2018-Jan-20 19:00N 24°32' W 076°51'4 7.5
2018-Jan-20 18:30N 24°29' W 076°49'4 7.6
2018-Jan-20 18:00N 24°26' W 076°47'  
2018-Jan-12 15:00N 38°54' W 076°25'0 0.0
2018-Jan-12 14:29N 38°54' W 076°25'0 0.0
2018-Jan-12 14:00N 38°54' W 076°25'0 0.0
2018-Jan-12 13:29N 38°54' W 076°25'0 0.0
2018-Jan-12 13:00N 38°54' W 076°25'0 0.0
2018-Jan-12 12:29N 38°54' W 076°25'0 0.0
2018-Jan-12 11:59N 38°54' W 076°25'0 0.0
2018-Jan-12 11:30N 38°54' W 076°25'0 0.1
2018-Jan-12 10:59N 38°54' W 076°25'0 0.1
2018-Jan-12 10:30N 38°54' W 076°25'0 0.0
2018-Jan-12 10:00N 38°54' W 076°25'0 0.0
2018-Jan-12 09:29N 38°54' W 076°25'0 0.0
2018-Jan-12 09:00N 38°54' W 076°25'0 0.0
2018-Jan-12 08:30N 38°54' W 076°25'0 0.0
2018-Jan-12 08:00N 38°54' W 076°25'0 0.0
2018-Jan-12 07:29N 38°54' W 076°25'0 0.1
2018-Jan-12 07:00N 38°54' W 076°25'0 0.0
2018-Jan-12 06:29N 38°54' W 076°25'0 0.0
2018-Jan-12 06:00N 38°54' W 076°25'0 0.0
2018-Jan-12 05:29N 38°54' W 076°25'0 0.2
2018-Jan-12 04:59N 38°54' W 076°25'0 0.3
2018-Jan-12 04:30N 38°54' W 076°25'0 0.2
2018-Jan-12 04:00N 38°54' W 076°25'0 0.1
2018-Jan-12 03:29N 38°53' W 076°25'0 0.0
2018-Jan-12 02:59N 38°53' W 076°25'0 0.0
2018-Jan-12 02:30N 38°53' W 076°25'0 0.0
2018-Jan-12 02:00N 38°53' W 076°25'0 0.0
2018-Jan-12 01:29N 38°53' W 076°25'0 0.0
2018-Jan-12 01:00N 38°53' W 076°25'0 0.0
2018-Jan-12 00:30N 38°53' W 076°25'0 0.0
2018-Jan-12 00:00N 38°53' W 076°25'0 0.0
2018-Jan-11 23:26N 38°53' W 076°25'0 0.0
2018-Jan-11 23:00N 38°53' W 076°25'0 0.1
2018-Jan-11 22:29N 38°53' W 076°25'0 0.3
2018-Jan-11 22:00N 38°54' W 076°25'0 0.3
2018-Jan-11 21:30N 38°54' W 076°25'0 0.1
2018-Jan-11 21:00N 38°54' W 076°25'0 0.0
2018-Jan-11 20:29N 38°54' W 076°25'0 0.0
2018-Jan-11 19:59N 38°54' W 076°25'0 0.0
2018-Jan-11 19:30N 38°54' W 076°25'0 0.0
2018-Jan-11 19:00N 38°54' W 076°25'0 0.0
2018-Jan-11 18:30N 38°54' W 076°25'0 0.0
2018-Jan-11 17:59N 38°54' W 076°25'0 0.0
2018-Jan-11 17:29N 38°54' W 076°25'0 0.0
2018-Jan-11 17:00N 38°54' W 076°25'0 0.1
2018-Jan-11 16:30N 38°54' W 076°25'0 0.2
2018-Jan-11 16:00N 38°54' W 076°25'0 0.4
2018-Jan-11 15:30N 38°54' W 076°25'0 0.2
2018-Jan-11 15:00N 38°54' W 076°25'0 0.1
2018-Jan-11 14:29N 38°53' W 076°25'0 0.0
2018-Jan-11 13:57N 38°53' W 076°25'0 0.0
2018-Jan-11 13:29N 38°53' W 076°25'0 0.0
2018-Jan-11 12:59N 38°53' W 076°25'0 0.0
2018-Jan-11 12:30N 38°53' W 076°25'0 0.0
2018-Jan-11 12:00N 38°53' W 076°25'0 0.0
2018-Jan-11 11:29N 38°53' W 076°25'0 0.0
2018-Jan-11 10:57N 38°53' W 076°25'0 0.0
2018-Jan-11 10:29N 38°53' W 076°25'0 0.0
2018-Jan-11 10:00N 38°53' W 076°25'0 0.2
2018-Jan-11 09:30N 38°53' W 076°25'0 0.4
2018-Jan-11 08:59N 38°54' W 076°25'0 0.2
2018-Jan-11 08:29N 38°54' W 076°25'0 0.0
2018-Jan-11 07:59N 38°54' W 076°25'0 0.0
2018-Jan-11 07:30N 38°54' W 076°25'0 0.0
2018-Jan-11 07:00N 38°54' W 076°25'0 0.0
2018-Jan-11 06:29N 38°54' W 076°25'0 0.0
2018-Jan-11 05:59N 38°54' W 076°25'0 0.1
2018-Jan-11 05:30N 38°54' W 076°25'0 0.1
2018-Jan-11 04:59N 38°54' W 076°25'0 0.2
2018-Jan-11 04:30N 38°54' W 076°25'0 0.3
2018-Jan-11 04:00N 38°54' W 076°25'0 0.1
2018-Jan-11 03:30N 38°54' W 076°25'0 0.1
2018-Jan-11 03:00N 38°53' W 076°25'0 0.0
2018-Jan-11 02:30N 38°53' W 076°25'0 0.0
2018-Jan-11 02:00N 38°53' W 076°25'0 0.0
2018-Jan-11 01:30N 38°53' W 076°25'0 0.0
2018-Jan-11 01:00N 38°53' W 076°25'0 0.0
2018-Jan-11 00:30N 38°53' W 076°25'0 0.0
2018-Jan-11 00:00N 38°53' W 076°25'0 0.0
2018-Jan-10 23:29N 38°53' W 076°25'0 0.0
2018-Jan-10 23:00N 38°53' W 076°25'0 0.0
2018-Jan-10 22:29N 38°53' W 076°25'  
Track history (hours):
 
Tides and Currents Weather Stations Pressure Air Temp Water Temp Dewpoint Dewpoint Depression Visibility Wind Speed Wind Dir Waves Ship Positions

Amura

Last reported at 2018-Jan-20 22:22 UTC. Time now 2018-Jan-21 20:30 UTC.
Position N 24°53' W 077°06'.

Length 291 m; draft 14.3 m.

Type: Cargo ship. MMSI: 371691000.

Date/timePositionNaut miles runAvg speedWind from/ knotsBaromVisibWave heightAir tempDewpointWater temp
2018-Jan-20 22:22N 24°53' W 077°06'3 6.6
2018-Jan-20 21:59N 24°51' W 077°04'3 7.3
2018-Jan-20 21:30N 24°48' W 077°02'4 7.2
2018-Jan-20 21:01N 24°45' W 076°60'4 7.2
2018-Jan-20 20:30N 24°42' W 076°58'4 7.6
2018-Jan-20 20:00N 24°39' W 076°55'4 7.6
2018-Jan-20 19:30N 24°36' W 076°54'4 7.4
2018-Jan-20 19:00N 24°32' W 076°51'4 7.5
2018-Jan-20 18:30N 24°29' W 076°49'4 7.6
2018-Jan-20 18:00N 24°26' W 076°47'  
2018-Jan-12 15:00N 38°54' W 076°25'0 0.0
2018-Jan-12 14:29N 38°54' W 076°25'0 0.0
2018-Jan-12 14:00N 38°54' W 076°25'0 0.0
2018-Jan-12 13:29N 38°54' W 076°25'0 0.0
2018-Jan-12 13:00N 38°54' W 076°25'0 0.0
2018-Jan-12 12:29N 38°54' W 076°25'0 0.0
2018-Jan-12 11:59N 38°54' W 076°25'0 0.0
2018-Jan-12 11:30N 38°54' W 076°25'0 0.1
2018-Jan-12 10:59N 38°54' W 076°25'0 0.1
2018-Jan-12 10:30N 38°54' W 076°25'0 0.0
2018-Jan-12 10:00N 38°54' W 076°25'0 0.0
2018-Jan-12 09:29N 38°54' W 076°25'0 0.0
2018-Jan-12 09:00N 38°54' W 076°25'0 0.0
2018-Jan-12 08:30N 38°54' W 076°25'0 0.0
2018-Jan-12 08:00N 38°54' W 076°25'0 0.0
2018-Jan-12 07:29N 38°54' W 076°25'0 0.1
2018-Jan-12 07:00N 38°54' W 076°25'0 0.0
2018-Jan-12 06:29N 38°54' W 076°25'0 0.0
2018-Jan-12 06:00N 38°54' W 076°25'0 0.0
2018-Jan-12 05:29N 38°54' W 076°25'0 0.2
2018-Jan-12 04:59N 38°54' W 076°25'0 0.3
2018-Jan-12 04:30N 38°54' W 076°25'0 0.2
2018-Jan-12 04:00N 38°54' W 076°25'0 0.1
2018-Jan-12 03:29N 38°53' W 076°25'0 0.0
2018-Jan-12 02:59N 38°53' W 076°25'0 0.0
2018-Jan-12 02:30N 38°53' W 076°25'0 0.0
2018-Jan-12 02:00N 38°53' W 076°25'0 0.0
2018-Jan-12 01:29N 38°53' W 076°25'0 0.0
2018-Jan-12 01:00N 38°53' W 076°25'0 0.0
2018-Jan-12 00:30N 38°53' W 076°25'0 0.0
2018-Jan-12 00:00N 38°53' W 076°25'0 0.0
2018-Jan-11 23:26N 38°53' W 076°25'0 0.0
2018-Jan-11 23:00N 38°53' W 076°25'0 0.1
2018-Jan-11 22:29N 38°53' W 076°25'0 0.3
2018-Jan-11 22:00N 38°54' W 076°25'0 0.3
2018-Jan-11 21:30N 38°54' W 076°25'0 0.1
2018-Jan-11 21:00N 38°54' W 076°25'0 0.0
2018-Jan-11 20:29N 38°54' W 076°25'0 0.0
2018-Jan-11 19:59N 38°54' W 076°25'0 0.0
2018-Jan-11 19:30N 38°54' W 076°25'0 0.0
2018-Jan-11 19:00N 38°54' W 076°25'0 0.0
2018-Jan-11 18:30N 38°54' W 076°25'0 0.0
2018-Jan-11 17:59N 38°54' W 076°25'0 0.0
2018-Jan-11 17:29N 38°54' W 076°25'0 0.0
2018-Jan-11 17:00N 38°54' W 076°25'0 0.1
2018-Jan-11 16:30N 38°54' W 076°25'0 0.2
2018-Jan-11 16:00N 38°54' W 076°25'0 0.4
2018-Jan-11 15:30N 38°54' W 076°25'0 0.2
2018-Jan-11 15:00N 38°54' W 076°25'0 0.1
2018-Jan-11 14:29N 38°53' W 076°25'0 0.0
2018-Jan-11 13:57N 38°53' W 076°25'0 0.0
2018-Jan-11 13:29N 38°53' W 076°25'0 0.0
2018-Jan-11 12:59N 38°53' W 076°25'0 0.0
2018-Jan-11 12:30N 38°53' W 076°25'0 0.0
2018-Jan-11 12:00N 38°53' W 076°25'0 0.0
2018-Jan-11 11:29N 38°53' W 076°25'0 0.0
2018-Jan-11 10:57N 38°53' W 076°25'0 0.0
2018-Jan-11 10:29N 38°53' W 076°25'0 0.0
2018-Jan-11 10:00N 38°53' W 076°25'0 0.2
2018-Jan-11 09:30N 38°53' W 076°25'0 0.4
2018-Jan-11 08:59N 38°54' W 076°25'0 0.2
2018-Jan-11 08:29N 38°54' W 076°25'0 0.0
2018-Jan-11 07:59N 38°54' W 076°25'0 0.0
2018-Jan-11 07:30N 38°54' W 076°25'0 0.0
2018-Jan-11 07:00N 38°54' W 076°25'0 0.0
2018-Jan-11 06:29N 38°54' W 076°25'0 0.0
2018-Jan-11 05:59N 38°54' W 076°25'0 0.1
2018-Jan-11 05:30N 38°54' W 076°25'0 0.1
2018-Jan-11 04:59N 38°54' W 076°25'0 0.2
2018-Jan-11 04:30N 38°54' W 076°25'0 0.3
2018-Jan-11 04:00N 38°54' W 076°25'0 0.1
2018-Jan-11 03:30N 38°54' W 076°25'0 0.1
2018-Jan-11 03:00N 38°53' W 076°25'0 0.0
2018-Jan-11 02:30N 38°53' W 076°25'0 0.0
2018-Jan-11 02:00N 38°53' W 076°25'0 0.0
2018-Jan-11 01:30N 38°53' W 076°25'0 0.0
2018-Jan-11 01:00N 38°53' W 076°25'0 0.0
2018-Jan-11 00:30N 38°53' W 076°25'0 0.0
2018-Jan-11 00:00N 38°53' W 076°25'0 0.0
2018-Jan-10 23:29N 38°53' W 076°25'0 0.0
2018-Jan-10 23:00N 38°53' W 076°25'0 0.0
2018-Jan-10 22:29N 38°53' W 076°25'  

Dump ship's entire track history